VABP/BHO METAR and TAF weather

Enter ICAO airport designator
Station Type Date Time Source
VABP METAR 2021/04/13 18:00 UTC NOAA

VABP 131800Z 20004KT 6000 NSC 26/13 Q1013 NOSIG


Station Type Date Time Source
VABP Decoded METAR 2021/04/13 18:00 UTC NOAA

Bhopal / Bairagarh, India (VABP) 23-17N 077-21E 523M
Apr 13, 2021 - 02:00 PM EDT / 2021.04.13 1800 UTC
Wind: from the SSW (200 degrees) at 5 MPH (4 KT):0
Visibility: 3 mile(s):0
Temperature: 78 F (26 C)
Dew Point: 55 F (13 C)
Relative Humidity: 44%
Pressure (altimeter): 29.91 in. Hg (1013 hPa)
ob: VABP 131800Z 20004KT 6000 NSC 26/13 Q1013 NOSIG
cycle: 18

Station Type Date Time Source
VABP TAF 2021/03/31 00:00 UTC NOAA

TAF VABP 302300Z 3100/0106 27010KT 5000 HZ NSC
BECMG 3104/3106 29010G20KT 6000 NSC
BECMG 3115/3117 27010KT 5000 HZ NSC
BECMG 0104/0106 27010G20KT 6000 NSC

Example: see airport list